createdAt,value
2018-05-24T00:00:44.530Z,3.90
2018-05-24T00:01:44.508Z,3.00
2018-05-24T00:02:44.501Z,4.90
2018-05-24T00:03:44.481Z,3.50
2018-05-24T00:04:44.465Z,6.50
2018-05-24T00:05:44.454Z,3.80
2018-05-24T00:06:44.439Z,3.20
2018-05-24T00:07:44.424Z,3.50
2018-05-24T00:08:44.413Z,4.60
2018-05-24T00:09:44.398Z,2.40
2018-05-24T00:10:44.394Z,7.80
2018-05-24T00:11:44.370Z,3.30
2018-05-24T00:12:44.354Z,6.10
2018-05-24T00:13:44.342Z,3.20
2018-05-24T00:14:44.330Z,5.40
2018-05-24T00:15:44.319Z,5.20
2018-05-24T00:16:44.301Z,5.30
2018-05-24T00:17:44.286Z,4.40
2018-05-24T00:18:44.283Z,4.20
2018-05-24T00:19:44.257Z,3.40
2018-05-24T00:20:44.243Z,4.70
2018-05-24T00:21:44.230Z,3.90
2018-05-24T00:22:44.214Z,4.90
2018-05-24T00:23:44.203Z,3.60
2018-05-24T00:24:44.196Z,4.50
2018-05-24T00:25:44.173Z,4.70
2018-05-24T00:26:44.160Z,3.00
2018-05-24T00:27:44.148Z,6.80
2018-05-24T00:28:44.141Z,3.80
2018-05-24T00:29:44.117Z,5.10
2018-05-24T00:30:44.112Z,2.90
2018-05-24T00:31:44.092Z,3.90
2018-05-24T00:32:44.076Z,2.70
2018-05-24T00:33:44.064Z,5.10
2018-05-24T00:34:44.050Z,4.70
2018-05-24T00:35:44.035Z,4.10
2018-05-24T00:36:44.019Z,6.90
2018-05-24T00:37:44.004Z,7.40
2018-05-24T00:38:44.000Z,5.20
2018-05-24T00:39:43.977Z,6.60
2018-05-24T00:40:43.961Z,3.00
2018-05-24T00:41:43.955Z,3.80
2018-05-24T00:42:43.942Z,5.70
2018-05-24T00:43:43.919Z,3.40
2018-05-24T00:44:43.905Z,6.20
2018-05-24T00:45:43.892Z,4.10
2018-05-24T00:46:43.886Z,5.30
2018-05-24T00:47:43.864Z,3.20
2018-05-24T00:48:43.854Z,4.90
2018-05-24T00:49:43.842Z,5.10
2018-05-24T00:50:43.922Z,6.60
2018-05-24T00:51:43.807Z,3.50
2018-05-24T00:52:43.792Z,4.30
2018-05-24T00:53:43.778Z,3.50
2018-05-24T00:54:43.802Z,2.40
2018-05-24T00:55:43.743Z,3.30
2018-05-24T00:56:43.735Z,3.10
2018-05-24T00:57:43.714Z,3.60
2018-05-24T00:58:43.703Z,3.50
2018-05-24T00:59:43.690Z,2.60
2018-05-24T01:00:43.670Z,3.30
2018-05-24T01:01:43.657Z,7.40
2018-05-24T01:02:43.646Z,3.70
2018-05-24T01:03:43.631Z,5.60
2018-05-24T01:04:43.616Z,3.40
2018-05-24T01:05:43.599Z,4.30
2018-05-24T01:06:43.589Z,4.20
2018-05-24T01:07:43.572Z,4.90
2018-05-24T01:08:43.558Z,4.60
2018-05-24T01:09:43.543Z,4.10
2018-05-24T01:10:43.533Z,7.10
2018-05-24T01:11:43.558Z,6.20
2018-05-24T01:12:43.508Z,4.50
2018-05-24T01:13:43.495Z,4.90
2018-05-24T01:14:43.473Z,3.70
2018-05-24T01:15:43.490Z,2.50
2018-05-24T01:16:43.447Z,4.30
2018-05-24T01:17:43.436Z,5.40
2018-05-24T01:18:43.416Z,6.00
2018-05-24T01:19:43.401Z,5.50
2018-05-24T01:20:43.386Z,7.40
2018-05-24T01:21:43.373Z,6.10
2018-05-24T01:22:43.373Z,4.70
2018-05-24T01:23:43.345Z,3.50
2018-05-24T01:24:43.329Z,4.50
2018-05-24T01:25:43.314Z,3.70
2018-05-24T01:26:43.304Z,3.40
2018-05-24T01:27:43.288Z,5.60
2018-05-24T01:28:43.278Z,8.40
2018-05-24T01:29:43.257Z,4.90
2018-05-24T01:30:43.243Z,5.70
2018-05-24T01:31:43.229Z,3.00
2018-05-24T01:32:43.224Z,4.20
2018-05-24T01:33:43.201Z,3.90
2018-05-24T01:34:43.195Z,4.00
2018-05-24T01:35:43.173Z,5.90
2018-05-24T01:36:43.156Z,7.00
2018-05-24T01:37:43.144Z,3.30
2018-05-24T01:38:43.129Z,4.20
2018-05-24T01:39:43.115Z,6.50
2018-05-24T01:40:43.101Z,3.70
2018-05-24T01:41:43.086Z,4.40
2018-05-24T01:42:43.072Z,5.40
2018-05-24T01:43:43.057Z,6.80
2018-05-24T01:44:43.043Z,5.40
2018-05-24T01:45:43.029Z,4.00
2018-05-24T01:46:43.015Z,3.40
2018-05-24T01:47:43.001Z,5.30
2018-05-24T01:48:42.988Z,6.50
2018-05-24T01:49:42.973Z,4.40
2018-05-24T01:50:42.960Z,4.80
2018-05-24T01:51:42.945Z,3.50
2018-05-24T01:52:42.932Z,5.70
2018-05-24T01:53:42.917Z,4.50
2018-05-24T01:54:42.902Z,3.20
2018-05-24T01:55:42.887Z,2.60
2018-05-24T01:56:42.881Z,5.90
2018-05-24T01:57:42.858Z,4.30
2018-05-24T01:58:42.848Z,4.60
2018-05-24T01:59:42.830Z,3.60
2018-05-24T02:00:42.815Z,4.20
2018-05-24T02:01:42.802Z,3.50
2018-05-24T02:02:42.794Z,4.40
2018-05-24T02:03:42.774Z,3.90
2018-05-24T02:04:42.759Z,5.20
2018-05-24T02:05:42.750Z,7.00
2018-05-24T02:06:42.732Z,3.30
2018-05-24T02:07:42.723Z,4.20
2018-05-24T02:08:42.703Z,4.20
2018-05-24T02:09:42.691Z,3.90
2018-05-24T02:10:42.672Z,4.90
2018-05-24T02:11:42.659Z,4.70
2018-05-24T02:12:42.645Z,5.90
2018-05-24T02:13:42.630Z,3.90
2018-05-24T02:14:42.616Z,6.20
2018-05-24T02:15:42.601Z,4.20
2018-05-24T02:16:42.587Z,4.50
2018-05-24T02:17:42.573Z,4.60
2018-05-24T02:18:42.560Z,5.90
2018-05-24T02:19:42.545Z,3.40
2018-05-24T02:20:42.533Z,4.70
2018-05-24T02:21:42.514Z,5.40
2018-05-24T02:22:42.500Z,6.00
2018-05-24T02:23:42.487Z,5.40
2018-05-24T02:24:42.558Z,4.40
2018-05-24T02:25:42.459Z,5.00
2018-05-24T02:26:42.443Z,4.30
2018-05-24T02:27:42.429Z,7.90
2018-05-24T02:28:42.415Z,4.10
2018-05-24T02:29:42.399Z,6.40
2018-05-24T02:30:42.390Z,3.40
2018-05-24T02:31:42.373Z,2.60
2018-05-24T02:32:42.356Z,5.80
2018-05-24T02:33:42.342Z,4.30
2018-05-24T02:34:42.348Z,5.90
2018-05-24T02:35:42.414Z,6.10
2018-05-24T02:36:42.308Z,3.90
2018-05-24T02:37:42.399Z,5.30
2018-05-24T02:38:42.272Z,4.80
2018-05-24T02:39:42.268Z,3.70
2018-05-24T02:40:42.241Z,3.20
2018-05-24T02:41:42.235Z,3.20
2018-05-24T02:42:42.216Z,5.60
2018-05-24T02:43:42.299Z,5.30
2018-05-24T02:44:42.194Z,7.70
2018-05-24T02:45:42.170Z,3.80
2018-05-24T02:46:42.155Z,4.00
2018-05-24T02:47:42.141Z,3.80
2018-05-24T02:48:42.127Z,6.00
2018-05-24T02:49:42.113Z,4.70
2018-05-24T02:50:42.098Z,4.90
2018-05-24T02:51:42.092Z,3.30
2018-05-24T02:52:42.077Z,7.70
2018-05-24T02:53:42.054Z,3.00
2018-05-24T02:54:42.040Z,3.60
2018-05-24T02:55:42.026Z,3.40
2018-05-24T02:56:42.019Z,4.50
2018-05-24T02:57:41.997Z,5.80
2018-05-24T02:58:41.982Z,7.30
2018-05-24T02:59:41.969Z,4.20
2018-05-24T03:00:41.953Z,5.30
2018-05-24T03:01:41.972Z,3.80
2018-05-24T03:02:41.925Z,5.10
2018-05-24T03:03:41.911Z,5.50
2018-05-24T03:04:41.895Z,4.00
2018-05-24T03:05:41.889Z,6.50
2018-05-24T03:06:41.875Z,3.90
2018-05-24T03:07:41.854Z,5.60
2018-05-24T03:08:41.838Z,6.00
2018-05-24T03:09:41.826Z,5.00
2018-05-24T03:10:41.810Z,4.30
2018-05-24T03:11:41.799Z,5.10
2018-05-24T03:12:41.781Z,4.30
2018-05-24T03:13:41.775Z,5.30
2018-05-24T03:14:41.755Z,4.90
2018-05-24T03:15:41.741Z,5.10
2018-05-24T03:16:41.727Z,4.10
2018-05-24T03:17:41.711Z,4.40
2018-05-24T03:18:41.695Z,5.60
2018-05-24T03:19:41.684Z,8.60
2018-05-24T03:20:41.669Z,6.40
2018-05-24T03:21:41.653Z,6.70
2018-05-24T03:22:41.637Z,6.50
2018-05-24T03:23:41.626Z,5.00
2018-05-24T03:24:41.615Z,4.30
2018-05-24T03:25:41.596Z,6.20
2018-05-24T03:26:41.581Z,5.10
2018-05-24T03:27:41.569Z,6.40
2018-05-24T03:28:41.551Z,4.90
2018-05-24T03:29:41.539Z,8.30
2018-05-24T03:30:41.522Z,6.70
2018-05-24T03:31:41.512Z,4.30
2018-05-24T03:32:41.494Z,6.90
2018-05-24T03:33:41.496Z,5.10
2018-05-24T03:34:41.468Z,3.20
2018-05-24T03:35:41.451Z,9.40
2018-05-24T03:36:41.439Z,7.60
2018-05-24T03:37:41.439Z,5.90
2018-05-24T03:38:41.418Z,3.80
2018-05-24T03:39:41.395Z,4.20
2018-05-24T03:40:41.388Z,5.20
2018-05-24T03:41:41.366Z,6.20
2018-05-24T03:42:41.352Z,6.70
2018-05-24T03:43:41.352Z,4.70
2018-05-24T03:44:41.330Z,3.60
2018-05-24T03:45:41.461Z,4.50
2018-05-24T03:46:41.302Z,5.50
2018-05-24T03:47:41.283Z,3.60
2018-05-24T03:48:41.269Z,6.90
2018-05-24T03:49:41.254Z,6.20
2018-05-24T03:50:41.241Z,4.40
2018-05-24T03:51:41.224Z,5.20
2018-05-24T03:52:41.208Z,4.20
2018-05-24T03:53:41.204Z,5.20
2018-05-24T03:54:41.190Z,6.00
2018-05-24T03:55:41.168Z,3.50
2018-05-24T03:56:41.151Z,4.70
2018-05-24T03:57:41.231Z,5.50
2018-05-24T03:58:41.124Z,3.30
2018-05-24T03:59:41.109Z,5.70
2018-05-24T04:00:41.098Z,4.90
2018-05-24T04:01:41.081Z,6.30
2018-05-24T04:02:41.066Z,7.80
2018-05-24T04:03:41.052Z,5.60
2018-05-24T04:04:41.039Z,3.80
2018-05-24T04:05:41.037Z,4.70
2018-05-24T04:06:41.012Z,5.60
2018-05-24T04:07:40.998Z,8.80
2018-05-24T04:08:40.993Z,7.80
2018-05-24T04:09:40.969Z,3.40
2018-05-24T04:10:40.954Z,4.10
2018-05-24T04:11:40.939Z,5.90
2018-05-24T04:12:40.925Z,5.30
2018-05-24T04:13:40.929Z,14.20
2018-05-24T04:14:40.895Z,4.00
2018-05-24T04:15:40.888Z,4.50
2018-05-24T04:16:40.867Z,8.20
2018-05-24T04:17:40.854Z,4.60
2018-05-24T04:18:40.839Z,4.70
2018-05-24T04:19:40.825Z,6.20
2018-05-24T04:20:40.812Z,4.60
2018-05-24T04:21:40.797Z,6.50
2018-05-24T04:22:40.783Z,5.10
2018-05-24T04:23:40.771Z,5.60
2018-05-24T04:24:40.755Z,7.40
2018-05-24T04:25:40.748Z,3.80
2018-05-24T04:26:40.739Z,5.80
2018-05-24T04:27:40.713Z,8.70
2018-05-24T04:28:40.699Z,4.70
2018-05-24T04:29:40.684Z,5.90
2018-05-24T04:30:40.680Z,6.30
2018-05-24T04:31:40.659Z,7.30
2018-05-24T04:32:40.644Z,5.90
2018-05-24T04:33:40.628Z,5.50
2018-05-24T04:34:40.615Z,5.70
2018-05-24T04:35:40.602Z,6.30
2018-05-24T04:36:40.588Z,4.50
2018-05-24T04:37:40.573Z,4.80
2018-05-24T04:38:40.559Z,5.90
2018-05-24T04:39:40.556Z,6.10
2018-05-24T04:40:40.531Z,6.20
2018-05-24T04:41:40.523Z,8.50
2018-05-24T04:42:40.504Z,4.60
2018-05-24T04:43:40.495Z,7.30
2018-05-24T04:44:40.475Z,6.50
2018-05-24T04:45:40.461Z,7.00
2018-05-24T04:46:40.449Z,6.80
2018-05-24T04:47:40.437Z,5.10
2018-05-24T04:48:40.419Z,5.50
2018-05-24T04:49:40.413Z,7.30
2018-05-24T04:50:40.393Z,4.70
2018-05-24T04:51:40.380Z,6.10
2018-05-24T04:52:40.394Z,10.50
2018-05-24T04:53:40.349Z,6.90
2018-05-24T04:54:40.337Z,7.10
2018-05-24T04:55:40.395Z,5.50
2018-05-24T04:56:40.307Z,6.70
2018-05-24T04:57:40.299Z,7.10
2018-05-24T04:58:40.282Z,6.10
2018-05-24T04:59:40.269Z,5.80
2018-05-24T05:00:40.252Z,6.70
2018-05-24T05:01:40.318Z,6.20
2018-05-24T05:02:40.225Z,5.20
2018-05-24T05:03:40.212Z,9.80
2018-05-24T05:04:40.199Z,6.80
2018-05-24T05:05:40.184Z,6.50
2018-05-24T05:06:40.171Z,8.40
2018-05-24T05:07:40.164Z,6.50
2018-05-24T05:08:40.143Z,5.00
2018-05-24T05:09:40.128Z,7.60
2018-05-24T05:10:40.115Z,7.10
2018-05-24T05:11:40.112Z,5.80
2018-05-24T05:12:40.104Z,6.00
2018-05-24T05:13:40.075Z,9.00
2018-05-24T05:14:40.172Z,8.50
2018-05-24T05:15:40.051Z,10.60
2018-05-24T05:16:40.035Z,10.10
2018-05-24T05:17:40.023Z,5.00
2018-05-24T05:18:40.006Z,6.80
2018-05-24T05:19:39.993Z,7.50
2018-05-24T05:20:39.979Z,6.20
2018-05-24T05:21:39.968Z,6.60
2018-05-24T05:22:39.951Z,8.30
2018-05-24T05:23:39.939Z,5.70
2018-05-24T05:24:39.926Z,10.80
2018-05-24T05:25:39.912Z,5.90
2018-05-24T05:26:39.902Z,6.10
2018-05-24T05:27:39.885Z,6.20
2018-05-24T05:28:39.870Z,9.20
2018-05-24T05:29:39.900Z,12.30
2018-05-24T05:30:39.922Z,8.30
2018-05-24T05:31:39.835Z,5.20
2018-05-24T05:32:39.826Z,6.50
2018-05-24T05:33:39.804Z,7.30
2018-05-24T05:34:39.791Z,5.90
2018-05-24T05:35:39.785Z,10.00
2018-05-24T05:36:39.765Z,9.40
2018-05-24T05:37:39.760Z,10.10
2018-05-24T05:38:39.787Z,6.50
2018-05-24T05:39:39.725Z,6.60
2018-05-24T05:40:39.712Z,6.10
2018-05-24T05:41:39.747Z,6.30
2018-05-24T05:42:39.684Z,6.90
2018-05-24T05:43:39.672Z,7.80
2018-05-24T05:44:39.657Z,5.90
2018-05-24T05:45:39.644Z,7.20
2018-05-24T05:46:39.633Z,7.20
2018-05-24T05:47:39.623Z,8.30
2018-05-24T05:48:39.607Z,5.70
2018-05-24T05:49:39.594Z,5.70
2018-05-24T05:50:39.595Z,4.90
2018-05-24T05:51:39.567Z,7.80
2018-05-24T05:52:39.558Z,6.60
2018-05-24T05:53:39.546Z,5.70
2018-05-24T05:54:39.530Z,6.30
2018-05-24T05:55:39.522Z,8.50
2018-05-24T05:56:39.503Z,6.50
2018-05-24T05:57:39.490Z,5.60
2018-05-24T05:58:39.477Z,6.00
2018-05-24T05:59:39.466Z,8.30
2018-05-24T06:00:39.456Z,5.90
2018-05-24T06:01:39.544Z,5.70
2018-05-24T06:02:39.429Z,8.50
2018-05-24T06:03:39.431Z,7.20
2018-05-24T06:04:39.406Z,6.40
2018-05-24T06:05:39.394Z,5.80
2018-05-24T06:06:39.382Z,11.40
2018-05-24T06:07:39.374Z,7.70
2018-05-24T06:08:39.359Z,8.00
2018-05-24T06:09:39.448Z,5.90
2018-05-24T06:10:39.362Z,7.10
2018-05-24T06:11:39.325Z,5.50
2018-05-24T06:12:39.312Z,7.10
2018-05-24T06:13:39.302Z,5.40
2018-05-24T06:14:39.291Z,6.40
2018-05-24T06:15:39.280Z,7.00
2018-05-24T06:16:39.270Z,5.60
2018-05-24T06:17:39.257Z,6.70
2018-05-24T06:18:39.247Z,5.00
2018-05-24T06:19:39.245Z,9.00
2018-05-24T06:20:39.225Z,6.60
2018-05-24T06:21:39.436Z,8.20
2018-05-24T06:22:39.203Z,5.70
2018-05-24T06:23:39.193Z,8.50
2018-05-24T06:24:39.190Z,5.90
2018-05-24T06:25:39.174Z,6.50
2018-05-24T06:26:39.167Z,6.60
2018-05-24T06:27:39.152Z,6.40
2018-05-24T06:28:39.145Z,7.20
2018-05-24T06:29:39.134Z,6.70
2018-05-24T06:30:39.120Z,7.70
2018-05-24T06:31:39.112Z,4.90
2018-05-24T06:32:39.101Z,6.20
2018-05-24T06:33:39.093Z,6.00
2018-05-24T06:34:39.081Z,10.00
2018-05-24T06:35:39.070Z,8.20
2018-05-24T06:36:39.057Z,7.80
2018-05-24T06:37:39.055Z,10.30
2018-05-24T06:38:39.038Z,10.80
2018-05-24T06:39:39.033Z,5.30
2018-05-24T06:40:39.055Z,6.50
2018-05-24T06:41:39.026Z,5.70
2018-05-24T06:42:38.992Z,5.70
2018-05-24T06:43:38.982Z,7.20
2018-05-24T06:44:38.983Z,6.70
2018-05-24T06:45:38.958Z,8.60
2018-05-24T06:46:38.947Z,10.50
2018-05-24T06:47:38.935Z,6.00
2018-05-24T06:48:38.935Z,7.50
2018-05-24T06:49:38.914Z,13.70
2018-05-24T06:50:38.903Z,12.10
2018-05-24T06:51:38.894Z,8.00
2018-05-24T06:52:38.883Z,6.60
2018-05-24T06:53:38.932Z,8.70
2018-05-24T06:54:38.861Z,9.90
2018-05-24T06:55:38.859Z,6.50
2018-05-24T06:56:38.898Z,5.60
2018-05-24T06:57:38.830Z,7.60
2018-05-24T06:58:38.822Z,8.10
2018-05-24T06:59:38.819Z,5.30
2018-05-24T07:00:38.801Z,5.50
2018-05-24T07:01:38.794Z,7.40
2018-05-24T07:02:38.786Z,7.90
2018-05-24T07:03:38.782Z,10.00
2018-05-24T07:04:38.772Z,6.50
2018-05-24T07:05:38.763Z,10.30
2018-05-24T07:06:38.747Z,8.70
2018-05-24T07:07:38.737Z,6.70
2018-05-24T07:08:38.727Z,7.20
2018-05-24T07:09:38.732Z,7.60
2018-05-24T07:10:38.713Z,7.80
2018-05-24T07:11:38.707Z,9.10
2018-05-24T07:12:38.702Z,8.00
2018-05-24T07:13:38.703Z,9.20
2018-05-24T07:14:38.733Z,9.20
2018-05-24T07:15:38.669Z,9.10
2018-05-24T07:16:38.662Z,6.40
2018-05-24T07:17:38.659Z,6.40
2018-05-24T07:18:38.711Z,5.30
2018-05-24T07:19:38.638Z,12.20
2018-05-24T07:20:38.638Z,8.30
2018-05-24T07:21:38.621Z,6.50
2018-05-24T07:22:38.615Z,4.70
2018-05-24T07:23:38.608Z,6.50
2018-05-24T07:24:38.696Z,10.00
2018-05-24T07:25:38.592Z,7.50
2018-05-24T07:26:38.586Z,10.50
2018-05-24T07:27:38.582Z,8.70
2018-05-24T07:28:38.574Z,8.40
2018-05-24T07:29:38.569Z,7.20
2018-05-24T07:30:38.561Z,9.40
2018-05-24T07:31:38.553Z,7.20
2018-05-24T07:32:38.548Z,8.40
2018-05-24T07:33:38.548Z,11.50
2018-05-24T07:34:38.535Z,5.90
2018-05-24T07:35:38.529Z,7.10
2018-05-24T07:36:38.519Z,8.50
2018-05-24T07:37:38.535Z,10.60
2018-05-24T07:38:38.507Z,7.40
2018-05-24T07:39:38.591Z,7.00
2018-05-24T07:40:38.503Z,9.50
2018-05-24T07:41:38.486Z,9.80
2018-05-24T07:42:38.476Z,8.20
2018-05-24T07:43:38.471Z,6.50
2018-05-24T07:44:38.470Z,6.30
2018-05-24T07:45:38.454Z,8.90
2018-05-24T07:46:38.447Z,10.00
2018-05-24T07:47:38.438Z,9.70
2018-05-24T07:48:38.438Z,10.00
2018-05-24T07:49:38.423Z,9.00
2018-05-24T07:50:38.420Z,8.90
2018-05-24T07:51:38.408Z,8.50
2018-05-24T07:52:38.397Z,8.80
2018-05-24T07:53:38.388Z,10.50
2018-05-24T07:54:38.380Z,10.90
2018-05-24T07:55:38.380Z,8.40
2018-05-24T07:56:38.365Z,8.00
2018-05-24T07:57:38.356Z,5.90
2018-05-24T07:58:38.350Z,7.50
2018-05-24T07:59:38.343Z,7.20
2018-05-24T08:00:38.326Z,8.20
2018-05-24T08:01:38.348Z,11.90
2018-05-24T08:02:38.312Z,10.60
2018-05-24T08:03:38.300Z,7.20
2018-05-24T08:04:38.290Z,9.30
2018-05-24T08:05:38.283Z,8.60
2018-05-24T08:06:38.273Z,9.40
2018-05-24T08:07:38.266Z,8.30
2018-05-24T08:08:38.272Z,12.10
2018-05-24T08:09:38.250Z,8.40
2018-05-24T08:10:38.258Z,11.50
2018-05-24T08:11:38.231Z,7.50
2018-05-24T08:12:38.222Z,8.90
2018-05-24T08:13:38.212Z,10.20
2018-05-24T08:14:38.291Z,6.90
2018-05-24T08:15:38.195Z,9.20
2018-05-24T08:16:38.200Z,10.10
2018-05-24T08:17:38.177Z,10.80
2018-05-24T08:18:38.171Z,9.10
2018-05-24T08:19:38.171Z,9.80
2018-05-24T08:20:38.153Z,11.30
2018-05-24T08:21:38.147Z,7.20
2018-05-24T08:22:38.265Z,7.80
2018-05-24T08:23:38.135Z,8.80
2018-05-24T08:24:38.120Z,20.70
2018-05-24T08:25:38.110Z,11.80
2018-05-24T08:26:38.105Z,11.40
2018-05-24T08:27:38.094Z,10.50
2018-05-24T08:28:38.089Z,7.70
2018-05-24T08:29:38.175Z,10.10
2018-05-24T08:30:38.079Z,10.90
2018-05-24T08:31:38.072Z,9.30
2018-05-24T08:32:38.055Z,12.40
2018-05-24T08:33:38.046Z,10.20
2018-05-24T08:34:38.037Z,9.20
2018-05-24T08:35:38.030Z,8.90
2018-05-24T08:36:38.021Z,8.30
2018-05-24T08:37:38.014Z,9.40
2018-05-24T08:38:38.008Z,9.20
2018-05-24T08:39:37.997Z,10.70
2018-05-24T08:40:38.079Z,10.00
2018-05-24T08:41:38.066Z,9.90
2018-05-24T08:42:37.973Z,9.30
2018-05-24T08:43:37.966Z,15.30
2018-05-24T08:44:37.958Z,11.70
2018-05-24T08:45:37.960Z,10.60
2018-05-24T08:46:37.941Z,10.00
2018-05-24T08:47:37.934Z,10.80
2018-05-24T08:48:37.924Z,9.00
2018-05-24T08:49:37.918Z,8.40
2018-05-24T08:50:37.918Z,7.40
2018-05-24T08:51:37.902Z,9.50
2018-05-24T08:52:37.898Z,9.80
2018-05-24T08:53:37.895Z,8.90
2018-05-24T08:54:37.966Z,8.60
2018-05-24T08:55:37.870Z,9.80
2018-05-24T08:56:37.871Z,12.50
2018-05-24T08:57:37.855Z,13.60
2018-05-24T08:58:37.849Z,12.30
2018-05-24T08:59:37.849Z,12.20
2018-05-24T09:00:37.834Z,8.80
2018-05-24T09:01:37.827Z,10.60
2018-05-24T09:02:37.817Z,15.70
2018-05-24T09:03:37.820Z,8.20
2018-05-24T09:04:37.804Z,17.30
2018-05-24T09:05:37.797Z,13.10
2018-05-24T09:06:37.798Z,9.90
2018-05-24T09:07:37.796Z,11.40
2018-05-24T09:08:37.868Z,10.30
2018-05-24T09:09:37.777Z,7.50
2018-05-24T09:10:37.769Z,9.20
2018-05-24T09:11:37.758Z,11.20
2018-05-24T09:12:37.749Z,14.80
2018-05-24T09:13:37.753Z,11.60
2018-05-24T09:14:37.735Z,8.50
2018-05-24T09:15:37.750Z,11.30
2018-05-24T09:16:37.731Z,11.50
2018-05-24T09:17:37.716Z,12.10
2018-05-24T09:18:37.711Z,9.20
2018-05-24T09:19:37.703Z,9.80
2018-05-24T09:20:37.697Z,7.50
2018-05-24T09:21:37.696Z,7.60
2018-05-24T09:22:37.689Z,8.20
2018-05-24T09:23:37.686Z,10.70
2018-05-24T09:24:37.675Z,10.80
2018-05-24T09:25:37.668Z,10.80
2018-05-24T09:26:37.663Z,8.70
2018-05-24T09:27:37.666Z,8.00
2018-05-24T09:28:37.648Z,8.90
2018-05-24T09:29:37.718Z,8.30
2018-05-24T09:30:37.639Z,10.70
2018-05-24T09:31:37.633Z,10.50
2018-05-24T09:32:37.633Z,14.30
2018-05-24T09:33:37.625Z,11.60
2018-05-24T09:34:37.616Z,11.70
2018-05-24T09:35:37.631Z,10.30
2018-05-24T09:36:37.613Z,11.50
2018-05-24T09:37:37.600Z,9.50
2018-05-24T09:38:37.595Z,10.10
2018-05-24T09:39:37.591Z,8.50
2018-05-24T09:40:37.584Z,14.30
2018-05-24T09:41:37.577Z,11.40
2018-05-24T09:42:37.574Z,9.60
2018-05-24T09:43:37.568Z,10.10
2018-05-24T09:44:37.570Z,10.80
2018-05-24T09:45:37.562Z,9.60
2018-05-24T09:46:37.558Z,7.80
2018-05-24T09:47:37.550Z,11.70
2018-05-24T09:48:37.608Z,8.80
2018-05-24T09:49:37.542Z,8.70
2018-05-24T09:50:37.592Z,9.20
2018-05-24T09:51:37.536Z,10.20
2018-05-24T09:52:37.531Z,9.50
2018-05-24T09:53:37.528Z,12.30
2018-05-24T09:54:37.528Z,16.20
2018-05-24T09:55:37.523Z,7.10
2018-05-24T09:56:37.517Z,7.60
2018-05-24T09:57:37.512Z,8.90
2018-05-24T09:58:37.508Z,9.50
2018-05-24T09:59:37.506Z,7.90
2018-05-24T10:00:37.516Z,8.60
2018-05-24T10:01:37.496Z,8.50
2018-05-24T10:02:37.491Z,11.20
2018-05-24T10:03:37.489Z,8.90
2018-05-24T10:04:37.498Z,10.90
2018-05-24T10:05:37.491Z,10.30
2018-05-24T10:06:37.478Z,8.20
2018-05-24T10:07:37.475Z,7.10
2018-05-24T10:08:37.471Z,10.90
2018-05-24T10:09:37.468Z,10.10
2018-05-24T10:10:37.639Z,9.60
2018-05-24T10:11:37.460Z,7.90
2018-05-24T10:12:37.462Z,8.50
2018-05-24T10:13:37.455Z,10.70
2018-05-24T10:14:37.451Z,7.70
2018-05-24T10:15:37.448Z,10.30
2018-05-24T10:16:37.546Z,8.50
2018-05-24T10:17:37.440Z,8.80
2018-05-24T10:18:37.445Z,9.40
2018-05-24T10:19:37.431Z,9.80
2018-05-24T10:20:37.433Z,10.90
2018-05-24T10:21:37.423Z,14.10
2018-05-24T10:22:37.426Z,10.30
2018-05-24T10:23:37.435Z,12.60
2018-05-24T10:24:37.408Z,8.90
2018-05-24T10:25:37.407Z,11.60
2018-05-24T10:26:37.400Z,12.50
2018-05-24T10:27:37.401Z,10.00
2018-05-24T10:28:37.386Z,12.30
2018-05-24T10:29:37.382Z,12.70
2018-05-24T10:30:37.377Z,12.70
2018-05-24T10:31:37.371Z,11.80
2018-05-24T10:32:37.368Z,17.20
2018-05-24T10:33:37.368Z,12.80
2018-05-24T10:34:37.361Z,12.60
2018-05-24T10:35:37.352Z,13.20
2018-05-24T10:36:37.362Z,12.20
2018-05-24T10:37:37.334Z,13.60
2018-05-24T10:38:37.335Z,14.70
2018-05-24T10:39:37.347Z,13.40
2018-05-24T10:40:37.314Z,10.90
2018-05-24T10:41:37.309Z,10.70
2018-05-24T10:42:37.305Z,10.80
2018-05-24T10:43:37.308Z,13.70
2018-05-24T10:44:37.296Z,13.30
2018-05-24T10:45:37.279Z,14.10
2018-05-24T10:46:37.276Z,11.90
2018-05-24T10:47:37.265Z,13.00
2018-05-24T10:48:37.264Z,15.30
2018-05-24T10:49:37.247Z,12.20
2018-05-24T10:50:37.240Z,12.70
2018-05-24T10:51:39.854Z,11.00
2018-05-24T10:52:37.223Z,12.80
2018-05-24T10:53:37.214Z,11.30
2018-05-24T10:54:37.214Z,13.20
2018-05-24T10:55:37.201Z,14.60
2018-05-24T10:56:37.276Z,14.40
2018-05-24T10:57:37.184Z,13.50
2018-05-24T10:58:37.175Z,9.80
2018-05-24T10:59:37.233Z,12.10
2018-05-24T11:00:37.242Z,11.20
2018-05-24T11:01:37.148Z,18.60
2018-05-24T11:02:37.167Z,12.60
2018-05-24T11:03:37.138Z,11.40
2018-05-24T11:04:37.144Z,11.70
2018-05-24T11:05:37.113Z,14.90
2018-05-24T11:06:37.110Z,13.80
2018-05-24T11:07:37.106Z,15.00
2018-05-24T11:08:37.170Z,12.20
2018-05-24T11:09:37.078Z,13.70
2018-05-24T11:10:37.073Z,16.30
2018-05-24T11:11:37.143Z,12.90
2018-05-24T11:12:37.056Z,13.10
2018-05-24T11:13:37.048Z,11.30
2018-05-24T11:14:37.041Z,12.80
2018-05-24T11:15:37.043Z,14.70
2018-05-24T11:16:37.029Z,13.30
2018-05-24T11:17:37.025Z,13.70
2018-05-24T11:18:37.014Z,11.60
2018-05-24T11:19:37.008Z,10.90
2018-05-24T11:20:36.998Z,12.70
2018-05-24T11:21:36.993Z,15.20
2018-05-24T11:22:36.987Z,12.60
2018-05-24T11:23:36.980Z,12.30
2018-05-24T11:24:36.988Z,13.20
2018-05-24T11:25:36.964Z,18.40
2018-05-24T11:26:37.019Z,13.00
2018-05-24T11:27:36.957Z,13.40
2018-05-24T11:28:36.953Z,12.70
2018-05-24T11:29:36.936Z,9.70
2018-05-24T11:30:36.930Z,16.30
2018-05-24T11:31:36.925Z,15.10
2018-05-24T11:32:36.923Z,11.70
2018-05-24T11:33:36.910Z,14.50
2018-05-24T11:34:36.910Z,13.70
2018-05-24T11:35:36.901Z,13.20
2018-05-24T11:36:36.884Z,13.70
2018-05-24T11:37:36.877Z,14.30
2018-05-24T11:38:36.865Z,11.10
2018-05-24T11:39:36.858Z,11.30
2018-05-24T11:40:36.857Z,14.70
2018-05-24T11:41:36.840Z,14.90
2018-05-24T11:42:36.831Z,11.90
2018-05-24T11:43:36.827Z,14.00
2018-05-24T11:44:36.824Z,15.30
2018-05-24T11:45:36.808Z,11.90
2018-05-24T11:46:36.811Z,11.00
2018-05-24T11:47:36.799Z,12.60
2018-05-24T11:48:36.799Z,11.20
2018-05-24T11:49:36.770Z,10.80
2018-05-24T11:50:36.764Z,13.30
2018-05-24T11:51:36.752Z,16.90
2018-05-24T11:52:36.751Z,11.60
2018-05-24T11:53:36.736Z,14.40
2018-05-24T11:54:36.730Z,12.40
2018-05-24T11:55:36.719Z,15.20
2018-05-24T11:56:36.704Z,12.80
2018-05-24T11:57:36.703Z,11.00
2018-05-24T11:58:36.687Z,11.30
2018-05-24T11:59:36.679Z,12.90
2018-05-24T12:00:36.669Z,13.00
2018-05-24T12:01:39.359Z,13.40
2018-05-24T12:02:36.647Z,13.70
2018-05-24T12:03:36.639Z,15.90
2018-05-24T12:04:36.646Z,14.80
2018-05-24T12:05:36.617Z,11.30
2018-05-24T12:06:36.626Z,13.20
2018-05-24T12:07:36.598Z,11.60
2018-05-24T12:08:36.596Z,14.70
2018-05-24T12:09:36.587Z,11.20
2018-05-24T12:10:36.569Z,14.10
2018-05-24T12:11:36.560Z,12.40
2018-05-24T12:12:36.549Z,14.50
2018-05-24T12:13:36.542Z,14.40
2018-05-24T12:14:36.529Z,13.30
2018-05-24T12:15:36.517Z,14.60
2018-05-24T12:16:36.506Z,11.70
2018-05-24T12:17:36.497Z,16.10
2018-05-24T12:18:36.486Z,12.70
2018-05-24T12:19:36.477Z,12.70
2018-05-24T12:20:36.466Z,10.80
2018-05-24T12:21:36.462Z,14.00
2018-05-24T12:22:36.464Z,11.10
2018-05-24T12:23:36.437Z,18.10
2018-05-24T12:24:36.428Z,15.30
2018-05-24T12:25:36.416Z,12.00
2018-05-24T12:26:36.406Z,11.40
2018-05-24T12:27:36.403Z,14.40
2018-05-24T12:28:36.389Z,12.40
2018-05-24T12:29:36.381Z,11.20
2018-05-24T12:30:36.373Z,12.60
2018-05-24T12:31:36.357Z,14.90
2018-05-24T12:32:36.341Z,12.00
2018-05-24T12:33:36.338Z,14.70
2018-05-24T12:34:36.323Z,14.80
2018-05-24T12:35:36.490Z,14.00
2018-05-24T12:36:36.311Z,21.90
2018-05-24T12:37:36.293Z,13.70
2018-05-24T12:38:36.348Z,15.80
2018-05-24T12:39:36.286Z,15.90
2018-05-24T12:40:36.260Z,13.40
2018-05-24T12:41:36.301Z,15.30
2018-05-24T12:42:36.246Z,15.60
2018-05-24T12:43:36.229Z,13.00
2018-05-24T12:44:36.223Z,15.70
2018-05-24T12:45:36.218Z,20.00
2018-05-24T12:46:36.200Z,16.20
2018-05-24T12:47:36.196Z,16.50
2018-05-24T12:48:36.186Z,16.90
2018-05-24T12:49:36.167Z,15.60
2018-05-24T12:50:36.167Z,13.50
2018-05-24T12:51:36.147Z,13.00
2018-05-24T12:52:36.134Z,11.40
2018-05-24T12:53:36.142Z,15.70
2018-05-24T12:54:36.115Z,14.10
2018-05-24T12:55:36.113Z,13.00
2018-05-24T12:56:36.097Z,13.90
2018-05-24T12:57:36.082Z,14.80
2018-05-24T12:58:36.072Z,12.20
2018-05-24T12:59:36.062Z,14.50
2018-05-24T13:00:36.054Z,13.10
2018-05-24T13:01:36.040Z,16.40
2018-05-24T13:02:36.029Z,15.20
2018-05-24T13:03:36.021Z,14.80
2018-05-24T13:04:36.006Z,13.90
2018-05-24T13:05:36.005Z,18.10
2018-05-24T13:06:35.984Z,16.60
2018-05-24T13:07:35.990Z,14.20
2018-05-24T13:08:36.041Z,14.10
2018-05-24T13:09:35.949Z,13.40